Terminal Aerodrome Forecast
Issued by NWS Cleveland, OH

Home | Current Version | Previous Version | Graphics & Text | Print | Product List | Glossary On
Versions: 1 2 3 4 5 6 7 8 9 10 11 12
927
FTUS41 KCLE 230520
TAFERI
TAF
KERI 230520Z 2306/2406 22004KT P6SM SKC
     FM231500 34006KT P6SM SCT040
     FM240100 VRB03KT P6SM SKC=

USA.gov is the U.S. government's official web portal to all federal, state and local government web resources and services.